createdAt,value
2023-02-08T00:02:32.613Z,7.97
2023-02-08T00:05:34.822Z,8.90
2023-02-08T00:08:38.040Z,5.90
2023-02-08T00:11:40.465Z,6.55
2023-02-08T00:14:42.807Z,9.48
2023-02-08T00:17:45.043Z,6.93
2023-02-08T00:20:47.593Z,6.53
2023-02-08T00:23:49.792Z,6.90
2023-02-08T00:26:52.028Z,6.12
2023-02-08T00:29:54.203Z,4.62
2023-02-08T00:32:56.690Z,7.90
2023-02-08T00:36:00.926Z,7.28
2023-02-08T00:39:03.747Z,7.22
2023-02-08T00:42:06.102Z,7.35
2023-02-08T00:45:08.804Z,8.30
2023-02-08T00:48:11.042Z,7.87
2023-02-08T00:51:14.464Z,9.77
2023-02-08T00:54:18.548Z,9.30
2023-02-08T00:57:20.791Z,8.60
2023-02-08T01:00:23.074Z,8.77
2023-02-08T01:03:25.392Z,8.18
2023-02-08T01:06:27.563Z,5.35
2023-02-08T01:09:29.714Z,9.75
2023-02-08T01:12:32.029Z,5.45
2023-02-08T01:15:34.405Z,5.62
2023-02-08T01:18:36.876Z,5.03
2023-02-08T01:21:41.205Z,6.53
2023-02-08T01:24:43.529Z,5.37
2023-02-08T01:27:45.779Z,5.93
2023-02-08T01:30:47.994Z,4.62
2023-02-08T01:33:50.298Z,3.70
2023-02-08T01:36:52.500Z,6.25
2023-02-08T01:39:54.700Z,5.22
2023-02-08T01:42:56.905Z,5.18
2023-02-08T01:45:59.136Z,6.55
2023-02-08T01:49:21.623Z,7.65
2023-02-08T01:52:25.681Z,6.43
2023-02-08T01:55:34.322Z,5.68
2023-02-08T01:58:40.797Z,6.10
2023-02-08T02:01:43.821Z,5.40
2023-02-08T02:04:47.353Z,6.32
2023-02-08T02:07:50.045Z,6.20
2023-02-08T02:10:52.316Z,7.20
2023-02-08T02:13:54.630Z,5.97
2023-02-08T02:17:00.480Z,4.37
2023-02-08T02:20:20.633Z,5.78
2023-02-08T02:23:50.735Z,5.53
2023-02-08T02:27:15.090Z,5.50
2023-02-08T02:30:52.755Z,6.22
2023-02-08T02:34:06.885Z,7.57
2023-02-08T02:37:13.956Z,5.90
2023-02-08T02:40:21.521Z,6.47
2023-02-08T02:43:41.737Z,5.40
2023-02-08T02:46:48.830Z,5.45
2023-02-08T02:49:54.851Z,6.72
2023-02-08T02:53:27.872Z,5.82
2023-02-08T02:56:37.530Z,6.05
2023-02-08T02:59:40.078Z,5.12
2023-02-08T03:02:42.572Z,6.87
2023-02-08T03:05:44.797Z,6.18
2023-02-08T03:08:54.287Z,5.57
2023-02-08T03:12:35.052Z,5.35
2023-02-08T03:15:44.372Z,5.40
2023-02-08T03:18:59.501Z,5.25
2023-02-08T03:22:22.284Z,4.20
2023-02-08T03:25:30.905Z,7.40
2023-02-08T03:28:41.101Z,5.30
2023-02-08T03:31:48.651Z,4.60
2023-02-08T03:34:55.469Z,5.05
2023-02-08T03:38:04.783Z,6.03
2023-02-08T03:41:10.206Z,4.93
2023-02-08T03:44:16.457Z,6.35
2023-02-08T03:47:39.727Z,5.62
2023-02-08T03:50:42.926Z,4.90
2023-02-08T03:53:46.458Z,5.53
2023-02-08T03:56:54.885Z,4.80
2023-02-08T04:00:11.529Z,5.57
2023-02-08T04:03:17.660Z,5.80
2023-02-08T04:06:20.956Z,4.53
2023-02-08T04:09:23.237Z,6.95
2023-02-08T04:12:25.484Z,4.32
2023-02-08T04:15:27.643Z,4.07
2023-02-08T04:18:29.878Z,5.30
2023-02-08T04:21:32.267Z,4.32
2023-02-08T04:24:34.532Z,4.90
2023-02-08T04:27:36.832Z,4.70
2023-02-08T04:30:39.393Z,4.22
2023-02-08T04:33:41.724Z,4.20
2023-02-08T04:36:43.913Z,3.70
2023-02-08T04:39:46.171Z,3.83
2023-02-08T04:42:48.374Z,4.12
2023-02-08T04:45:51.362Z,4.75
2023-02-08T04:48:53.697Z,5.03
2023-02-08T04:51:55.910Z,5.20
2023-02-08T04:54:58.231Z,6.57
2023-02-08T04:58:00.378Z,7.75
2023-02-08T05:01:07.340Z,7.45
2023-02-08T05:04:09.573Z,5.30
2023-02-08T05:07:11.740Z,3.72
2023-02-08T05:10:14.350Z,4.57
2023-02-08T05:13:16.585Z,4.80
2023-02-08T05:16:19.317Z,3.08
2023-02-08T05:19:21.489Z,3.80
2023-02-08T05:22:23.727Z,5.47
2023-02-08T05:25:25.977Z,5.20
2023-02-08T05:28:28.205Z,4.05
2023-02-08T05:31:30.649Z,4.70
2023-02-08T05:34:32.940Z,3.83
2023-02-08T05:37:35.148Z,3.65
2023-02-08T05:40:37.327Z,3.30
2023-02-08T05:43:39.498Z,5.68
2023-02-08T05:46:41.752Z,3.50
2023-02-08T05:49:43.960Z,3.70
2023-02-08T05:52:46.192Z,4.53
2023-02-08T05:55:51.205Z,3.65
2023-02-08T05:58:53.399Z,4.55
2023-02-08T06:01:55.563Z,3.30
2023-02-08T06:04:57.851Z,4.95
2023-02-08T06:08:00.030Z,3.45
2023-02-08T06:11:02.242Z,4.35
2023-02-08T06:14:04.440Z,2.03
2023-02-08T06:17:06.692Z,4.10
2023-02-08T06:20:09.554Z,4.57
2023-02-08T06:23:11.716Z,3.20
2023-02-08T06:26:13.922Z,4.53
2023-02-08T06:29:16.248Z,3.35
2023-02-08T06:32:18.539Z,4.07
2023-02-08T06:35:20.812Z,3.67
2023-02-08T06:38:23.127Z,3.20
2023-02-08T06:41:25.400Z,4.47
2023-02-08T06:44:27.677Z,5.70
2023-02-08T06:47:30.000Z,3.37
2023-02-08T06:50:32.512Z,3.33
2023-02-08T06:53:34.756Z,3.78
2023-02-08T06:56:36.967Z,4.25
2023-02-08T06:59:40.296Z,3.37
2023-02-08T07:02:42.518Z,3.35
2023-02-08T07:05:58.762Z,3.60
2023-02-08T07:09:05.847Z,3.80
2023-02-08T07:12:08.503Z,6.03
2023-02-08T07:15:13.290Z,5.45
2023-02-08T07:18:15.500Z,5.60
2023-02-08T07:21:17.700Z,5.65
2023-02-08T07:24:19.991Z,5.43
2023-02-08T07:27:23.965Z,5.55
2023-02-08T07:30:27.174Z,3.28
2023-02-08T07:33:29.345Z,4.75
2023-02-08T07:36:31.553Z,3.35
2023-02-08T07:39:33.858Z,4.20
2023-02-08T07:42:36.043Z,4.65
2023-02-08T07:45:38.638Z,4.80
2023-02-08T07:48:41.097Z,4.90
2023-02-08T07:51:43.322Z,4.15
2023-02-08T07:54:45.525Z,4.43
2023-02-08T07:57:48.900Z,3.37
2023-02-08T08:00:51.329Z,3.78
2023-02-08T08:03:53.889Z,3.25
2023-02-08T08:06:56.127Z,4.22
2023-02-08T08:09:58.304Z,3.58
2023-02-08T08:13:00.571Z,2.83
2023-02-08T08:16:02.847Z,3.78
2023-02-08T08:19:05.098Z,3.87
2023-02-08T08:22:07.262Z,3.22
2023-02-08T08:25:09.513Z,2.62
2023-02-08T08:28:11.726Z,4.10
2023-02-08T08:31:16.748Z,3.35
2023-02-08T08:34:19.040Z,2.80
2023-02-08T08:37:21.202Z,3.10
2023-02-08T08:40:25.178Z,1.73
2023-02-08T08:43:27.460Z,2.67
2023-02-08T08:46:29.658Z,2.97
2023-02-08T08:49:31.957Z,2.70
2023-02-08T08:52:34.166Z,3.85
2023-02-08T08:55:36.446Z,2.72
2023-02-08T08:58:38.679Z,2.55
2023-02-08T09:01:42.853Z,2.58
2023-02-08T09:04:45.153Z,2.67
2023-02-08T09:07:47.329Z,3.25
2023-02-08T09:10:49.638Z,2.25
2023-02-08T09:13:53.219Z,2.83
2023-02-08T09:16:55.469Z,3.97
2023-02-08T09:19:57.729Z,2.70
2023-02-08T09:22:59.964Z,4.07
2023-02-08T09:26:03.763Z,2.62
2023-02-08T09:29:06.674Z,3.65
2023-02-08T09:32:10.517Z,3.03
2023-02-08T09:35:13.515Z,1.92
2023-02-08T09:38:15.745Z,2.95
2023-02-08T09:41:29.705Z,3.12
2023-02-08T09:44:50.463Z,2.87
2023-02-08T09:48:18.213Z,3.70
2023-02-08T09:51:29.623Z,3.17
2023-02-08T09:54:39.665Z,4.10
2023-02-08T09:57:42.564Z,2.35
2023-02-08T10:00:47.104Z,3.40
2023-02-08T10:03:51.481Z,3.55
2023-02-08T10:06:53.864Z,2.42
2023-02-08T10:09:59.003Z,2.42
2023-02-08T10:13:07.124Z,1.67
2023-02-08T10:16:20.778Z,2.30
2023-02-08T10:19:31.687Z,3.33
2023-02-08T10:22:49.047Z,3.40
2023-02-08T10:26:33.043Z,2.50
2023-02-08T10:29:59.917Z,2.78
2023-02-08T10:33:07.666Z,3.35
2023-02-08T10:36:15.134Z,2.85
2023-02-08T10:39:19.947Z,2.78
2023-02-08T10:42:23.299Z,3.37
2023-02-08T10:45:29.606Z,3.15
2023-02-08T10:48:46.381Z,2.17
2023-02-08T10:51:48.919Z,2.25
2023-02-08T10:54:51.193Z,2.40
2023-02-08T10:57:58.827Z,2.62
2023-02-08T11:01:01.447Z,2.95
2023-02-08T11:04:12.657Z,3.30
2023-02-08T11:07:21.453Z,2.97
2023-02-08T11:10:25.352Z,3.15
2023-02-08T11:13:36.366Z,3.08
2023-02-08T11:16:39.268Z,3.80
2023-02-08T11:19:46.198Z,3.50
2023-02-08T11:22:48.401Z,3.53
2023-02-08T11:25:51.454Z,1.90
2023-02-08T11:29:17.956Z,2.47
2023-02-08T11:32:20.595Z,3.37
2023-02-08T11:35:26.730Z,2.00
2023-02-08T11:38:29.516Z,3.22
2023-02-08T11:41:31.848Z,2.72
2023-02-08T11:44:36.799Z,1.95
2023-02-08T11:47:39.010Z,3.17
2023-02-08T11:50:41.717Z,1.85
2023-02-08T11:53:48.042Z,2.47
2023-02-08T11:57:01.771Z,2.28
2023-02-08T12:00:18.514Z,2.50
2023-02-08T12:03:26.222Z,2.90
2023-02-08T12:06:40.731Z,2.47
2023-02-08T12:10:04.161Z,2.90
2023-02-08T12:13:44.849Z,1.83
2023-02-08T12:17:17.674Z,2.70
2023-02-08T12:20:45.527Z,2.17
2023-02-08T12:23:50.624Z,3.40
2023-02-08T12:27:34.920Z,3.25
2023-02-08T12:30:45.658Z,2.45
2023-02-08T12:34:18.633Z,3.20
2023-02-08T12:37:54.560Z,2.75
2023-02-08T12:41:15.038Z,2.40
2023-02-08T12:44:41.964Z,2.55
2023-02-08T12:48:06.027Z,2.45
2023-02-08T12:51:26.829Z,3.33
2023-02-08T12:55:13.342Z,4.17
2023-02-08T12:58:31.495Z,2.70
2023-02-08T13:01:42.090Z,2.95
2023-02-08T13:04:47.752Z,2.13
2023-02-08T13:08:03.245Z,2.25
2023-02-08T13:11:19.785Z,2.87
2023-02-08T13:14:35.087Z,2.20
2023-02-08T13:18:25.828Z,3.60
2023-02-08T13:21:30.881Z,2.05
2023-02-08T13:24:36.967Z,2.80
2023-02-08T13:27:39.212Z,3.15
2023-02-08T13:30:41.922Z,1.45
2023-02-08T13:34:01.721Z,2.05
2023-02-08T13:37:16.693Z,2.35
2023-02-08T13:40:28.428Z,2.67
2023-02-08T13:43:53.542Z,2.40
2023-02-08T13:46:55.849Z,2.62
2023-02-08T13:50:07.499Z,2.17
2023-02-08T13:53:10.617Z,2.08
2023-02-08T13:56:13.505Z,4.05
2023-02-08T13:59:35.123Z,2.90
2023-02-08T14:06:05.534Z,2.28
2023-02-08T14:09:26.298Z,3.05
2023-02-08T14:12:37.402Z,3.27
2023-02-08T14:15:40.258Z,3.05
2023-02-08T14:18:52.017Z,3.35
2023-02-08T14:22:03.716Z,5.05
2023-02-08T14:25:15.443Z,6.03
2023-02-08T14:28:28.160Z,3.10
2023-02-08T14:31:42.780Z,2.40
2023-02-08T14:34:45.185Z,3.83
2023-02-08T14:37:48.834Z,3.08
2023-02-08T14:40:51.704Z,3.22
2023-02-08T14:43:53.948Z,4.85
2023-02-08T14:46:56.165Z,3.72
2023-02-08T14:50:18.013Z,4.80
2023-02-08T14:53:35.211Z,2.33
2023-02-08T14:56:50.555Z,2.42
2023-02-08T14:59:53.896Z,2.30
2023-02-08T15:02:56.720Z,2.30
2023-02-08T15:06:15.761Z,3.30
2023-02-08T15:09:23.596Z,3.55
2023-02-08T15:12:32.506Z,3.03
2023-02-08T15:15:38.813Z,2.47
2023-02-08T15:18:45.826Z,3.35
2023-02-08T15:21:48.046Z,3.33
2023-02-08T15:24:52.700Z,3.05
2023-02-08T15:28:00.379Z,3.00
2023-02-08T15:31:06.044Z,3.22
2023-02-08T15:34:10.744Z,3.70
2023-02-08T15:37:16.620Z,3.35
2023-02-08T15:40:27.763Z,4.05
2023-02-08T15:43:30.749Z,5.00
2023-02-08T15:46:34.787Z,3.45
2023-02-08T15:49:40.097Z,4.43
2023-02-08T15:52:42.631Z,4.82
2023-02-08T15:55:49.191Z,3.95
2023-02-08T15:58:54.560Z,4.78
2023-02-08T16:01:58.053Z,5.05
2023-02-08T16:05:01.689Z,3.92
2023-02-08T16:08:04.162Z,2.67
2023-02-08T16:11:16.076Z,3.35
2023-02-08T16:14:24.214Z,15.80
2023-02-08T16:17:35.710Z,6.70
2023-02-08T16:20:37.901Z,16.40
2023-02-08T16:23:40.131Z,7.75
2023-02-08T16:26:42.818Z,9.77
2023-02-08T16:29:47.062Z,7.15
2023-02-08T16:32:49.294Z,11.77
2023-02-08T16:35:52.228Z,13.60
2023-02-08T16:39:39.130Z,16.62
2023-02-08T16:42:44.306Z,9.18
2023-02-08T16:45:47.519Z,7.78
2023-02-08T16:48:56.329Z,15.57
2023-02-08T16:51:59.093Z,31.62
2023-02-08T16:55:01.729Z,22.40
2023-02-08T16:58:04.657Z,9.85
2023-02-08T17:01:08.595Z,23.25
2023-02-08T17:04:10.839Z,34.63
2023-02-08T17:07:18.459Z,10.32
2023-02-08T17:10:30.825Z,12.13
2023-02-08T17:13:32.965Z,18.83
2023-02-08T17:16:36.600Z,18.70
2023-02-08T17:19:38.827Z,45.70
2023-02-08T17:22:41.074Z,27.87
2023-02-08T17:25:43.904Z,22.05
2023-02-08T17:28:46.969Z,10.23
2023-02-08T17:31:49.590Z,38.28
2023-02-08T17:34:52.293Z,20.42
2023-02-08T17:37:56.382Z,20.75
2023-02-08T17:41:01.071Z,6.22
2023-02-08T17:44:04.280Z,4.50
2023-02-08T17:47:06.931Z,3.62
2023-02-08T17:50:12.359Z,4.78
2023-02-08T17:53:15.953Z,4.78
2023-02-08T17:56:21.039Z,5.37
2023-02-08T17:59:23.742Z,6.20
2023-02-08T18:02:26.286Z,4.85
2023-02-08T18:05:30.026Z,5.03
2023-02-08T18:08:32.396Z,3.83
2023-02-08T18:11:34.649Z,3.80
2023-02-08T18:14:38.666Z,4.78
2023-02-08T18:17:41.437Z,4.95
2023-02-08T18:20:45.187Z,4.82
2023-02-08T18:23:49.633Z,4.22
2023-02-08T18:26:52.015Z,3.30
2023-02-08T18:29:54.890Z,3.40
2023-02-08T18:32:57.083Z,4.28
2023-02-08T18:35:59.777Z,3.03
2023-02-08T18:39:02.661Z,3.55
2023-02-08T18:42:05.297Z,3.58
2023-02-08T18:45:08.400Z,2.90
2023-02-08T18:48:10.862Z,4.30
2023-02-08T18:51:16.246Z,5.60
2023-02-08T18:54:18.751Z,3.80
2023-02-08T18:57:21.279Z,4.25
2023-02-08T19:00:23.820Z,3.03
2023-02-08T19:03:27.413Z,3.10
2023-02-08T19:06:31.697Z,4.57
2023-02-08T19:09:38.324Z,4.25
2023-02-08T19:12:41.688Z,4.90
2023-02-08T19:15:45.086Z,5.30
2023-02-08T19:18:48.377Z,4.07
2023-02-08T19:21:50.869Z,2.60
2023-02-08T19:24:56.706Z,3.72
2023-02-08T19:27:59.212Z,4.95
2023-02-08T19:31:06.587Z,4.25
2023-02-08T19:34:10.576Z,4.25
2023-02-08T19:37:12.761Z,4.12
2023-02-08T19:40:15.573Z,5.95
2023-02-08T19:43:18.368Z,4.70
2023-02-08T19:46:23.444Z,5.00
2023-02-08T19:49:27.292Z,4.32
2023-02-08T19:52:29.729Z,3.92
2023-02-08T19:55:31.936Z,4.68
2023-02-08T19:58:35.461Z,4.25
2023-02-08T20:01:38.007Z,4.10
2023-02-08T20:04:41.028Z,3.45
2023-02-08T20:07:43.562Z,4.30
2023-02-08T20:10:48.102Z,4.95
2023-02-08T20:13:51.265Z,3.92
2023-02-08T20:16:53.844Z,3.72
2023-02-08T20:19:56.379Z,3.75
2023-02-08T20:22:58.892Z,4.78
2023-02-08T20:26:14.683Z,6.45
2023-02-08T20:29:17.635Z,6.68
2023-02-08T20:32:20.095Z,5.70
2023-02-08T20:35:23.076Z,4.25
2023-02-08T20:38:25.520Z,10.77
2023-02-08T20:41:30.410Z,16.58
2023-02-08T20:44:32.937Z,11.68
2023-02-08T20:47:46.080Z,8.13
2023-02-08T20:50:48.753Z,13.80
2023-02-08T20:53:52.329Z,9.48
2023-02-08T20:56:54.901Z,14.82
2023-02-08T20:59:57.305Z,14.95
2023-02-08T21:02:59.728Z,9.80
2023-02-08T21:06:01.905Z,12.00
2023-02-08T21:09:07.594Z,13.15
2023-02-08T21:12:09.866Z,9.65
2023-02-08T21:15:12.331Z,7.90
2023-02-08T21:18:14.601Z,6.30
2023-02-08T21:21:17.714Z,5.53
2023-02-08T21:24:20.249Z,7.90
2023-02-08T21:27:24.309Z,5.87
2023-02-08T21:30:26.667Z,7.05
2023-02-08T21:33:29.429Z,5.72
2023-02-08T21:36:31.839Z,6.10
2023-02-08T21:39:34.005Z,6.30
2023-02-08T21:42:36.163Z,5.45
2023-02-08T21:45:38.347Z,5.15
2023-02-08T21:48:59.127Z,5.37
2023-02-08T21:52:19.722Z,5.35
2023-02-08T21:55:21.845Z,4.68
2023-02-08T21:58:24.294Z,5.12
2023-02-08T22:01:26.534Z,4.45
2023-02-08T22:04:28.750Z,4.20
2023-02-08T22:07:48.748Z,3.87
2023-02-08T22:10:58.381Z,4.87
2023-02-08T22:14:01.113Z,6.45
2023-02-08T22:17:03.297Z,4.37
2023-02-08T22:20:06.347Z,4.43
2023-02-08T22:23:08.492Z,5.25
2023-02-08T22:26:11.033Z,5.37
2023-02-08T22:29:13.233Z,4.85
2023-02-08T22:32:18.312Z,6.00
2023-02-08T22:35:20.649Z,3.33
2023-02-08T22:38:23.763Z,5.55
2023-02-08T22:41:26.147Z,5.15
2023-02-08T22:44:28.399Z,4.47
2023-02-08T22:47:30.605Z,4.40
2023-02-08T22:50:32.794Z,5.43
2023-02-08T22:53:35.064Z,4.87
2023-02-08T22:56:37.711Z,1.83
2023-02-08T22:59:40.091Z,4.57
2023-02-08T23:02:42.356Z,4.72
2023-02-08T23:05:46.632Z,3.87
2023-02-08T23:08:49.158Z,5.97
2023-02-08T23:11:51.567Z,3.72
2023-02-08T23:14:53.803Z,5.78
2023-02-08T23:17:56.058Z,3.58
2023-02-08T23:20:58.173Z,3.85
2023-02-08T23:24:00.391Z,5.60
2023-02-08T23:27:02.660Z,3.87
2023-02-08T23:30:06.816Z,4.68
2023-02-08T23:33:10.163Z,4.60
2023-02-08T23:36:18.593Z,3.47
2023-02-08T23:39:20.799Z,3.25
2023-02-08T23:42:25.799Z,5.05
2023-02-08T23:45:28.655Z,6.70
2023-02-08T23:48:30.899Z,4.10
2023-02-08T23:51:33.122Z,3.05
2023-02-08T23:54:36.636Z,4.22
2023-02-08T23:57:39.011Z,1.98
